createdAt,value
2023-01-25T00:01:54.593Z,34.97
2023-01-25T00:04:22.329Z,31.05
2023-01-25T00:06:49.913Z,32.83
2023-01-25T00:09:17.964Z,33.13
2023-01-25T00:11:44.679Z,29.15
2023-01-25T00:14:12.458Z,30.87
2023-01-25T00:16:40.631Z,35.38
2023-01-25T00:19:08.583Z,34.80
2023-01-25T00:21:36.076Z,32.13
2023-01-25T00:24:04.026Z,35.63
2023-01-25T00:26:31.983Z,33.87
2023-01-25T00:28:58.556Z,34.05
2023-01-25T00:31:35.026Z,39.55
2023-01-25T00:34:24.358Z,34.92
2023-01-25T00:36:58.942Z,33.60
2023-01-25T00:39:26.911Z,34.43
2023-01-25T00:41:53.700Z,29.85
2023-01-25T00:44:20.328Z,38.65
2023-01-25T00:46:47.396Z,37.85
2023-01-25T00:49:21.399Z,34.40
2023-01-25T00:51:48.701Z,36.30
2023-01-25T00:54:15.224Z,39.08
2023-01-25T00:56:41.738Z,31.67
2023-01-25T00:59:09.461Z,29.90
2023-01-25T01:01:36.333Z,27.20
2023-01-25T01:04:04.993Z,34.40
2023-01-25T01:06:32.351Z,41.95
2023-01-25T01:08:58.907Z,35.08
2023-01-25T01:11:25.468Z,35.25
2023-01-25T01:13:52.032Z,42.33
2023-01-25T01:16:19.083Z,35.73
2023-01-25T01:18:46.333Z,41.85
2023-01-25T01:21:14.108Z,37.70
2023-01-25T01:23:41.303Z,44.53
2023-01-25T01:26:11.004Z,35.95
2023-01-25T01:28:37.548Z,35.23
2023-01-25T01:31:06.826Z,38.72
2023-01-25T01:33:35.224Z,38.67
2023-01-25T01:36:13.657Z,33.53
2023-01-25T01:38:40.767Z,39.42
2023-01-25T01:41:08.130Z,40.57
2023-01-25T01:43:35.023Z,34.42
2023-01-25T01:46:09.464Z,31.55
2023-01-25T01:48:38.600Z,30.50
2023-01-25T01:51:33.141Z,36.78
2023-01-25T01:54:08.843Z,32.50
2023-01-25T01:56:46.424Z,36.20
2023-01-25T01:59:13.252Z,31.35
2023-01-25T02:01:40.178Z,34.15
2023-01-25T02:04:08.468Z,37.65
2023-01-25T02:06:46.050Z,38.07
2023-01-25T02:09:14.590Z,30.45
2023-01-25T02:11:41.878Z,30.15
2023-01-25T02:14:09.027Z,26.73
2023-01-25T02:16:35.589Z,28.45
2023-01-25T02:19:02.268Z,31.33
2023-01-25T02:21:36.547Z,29.95
2023-01-25T02:24:10.642Z,20.83
2023-01-25T02:26:37.489Z,35.60
2023-01-25T02:29:06.967Z,27.50
2023-01-25T02:31:33.819Z,26.60
2023-01-25T02:34:00.867Z,29.63
2023-01-25T02:36:30.659Z,34.42
2023-01-25T02:39:02.090Z,34.10
2023-01-25T02:41:35.717Z,29.58
2023-01-25T02:44:23.466Z,36.23
2023-01-25T02:46:50.095Z,30.63
2023-01-25T02:49:17.139Z,25.92
2023-01-25T02:51:47.580Z,27.83
2023-01-25T02:54:15.873Z,33.97
2023-01-25T02:56:42.669Z,24.40
2023-01-25T02:59:10.487Z,27.48
2023-01-25T03:01:39.080Z,29.08
2023-01-25T03:04:06.602Z,36.83
2023-01-25T03:06:34.626Z,35.05
2023-01-25T03:09:02.358Z,34.00
2023-01-25T03:11:28.939Z,31.52
2023-01-25T03:13:55.569Z,34.80
2023-01-25T03:16:22.229Z,35.33
2023-01-25T03:18:48.806Z,35.38
2023-01-25T03:21:19.760Z,37.30
2023-01-25T03:23:47.735Z,35.33
2023-01-25T03:26:19.713Z,26.60
2023-01-25T03:28:46.391Z,36.03
2023-01-25T03:31:15.241Z,32.42
2023-01-25T03:33:41.887Z,28.20
2023-01-25T03:36:09.372Z,34.67
2023-01-25T03:38:36.201Z,33.47
2023-01-25T03:41:03.635Z,32.35
2023-01-25T03:43:30.584Z,33.20
2023-01-25T03:46:00.119Z,24.63
2023-01-25T03:48:27.972Z,32.97
2023-01-25T03:50:59.314Z,24.63
2023-01-25T03:53:28.906Z,29.25
2023-01-25T03:55:57.910Z,31.75
2023-01-25T03:58:24.782Z,21.97
2023-01-25T04:00:54.806Z,27.40
2023-01-25T04:03:21.478Z,27.92
2023-01-25T04:05:48.529Z,31.13
2023-01-25T04:08:15.417Z,32.03
2023-01-25T04:10:41.942Z,27.33
2023-01-25T04:13:09.160Z,29.85
2023-01-25T04:15:36.234Z,25.10
2023-01-25T04:18:02.848Z,31.13
2023-01-25T04:20:29.609Z,18.98
2023-01-25T04:22:56.179Z,32.73
2023-01-25T04:25:22.716Z,32.15
2023-01-25T04:27:50.163Z,29.58
2023-01-25T04:30:17.126Z,23.70
2023-01-25T04:32:43.889Z,29.85
2023-01-25T04:35:11.043Z,30.93
2023-01-25T04:37:37.975Z,30.30
2023-01-25T04:40:05.444Z,36.30
2023-01-25T04:42:32.048Z,33.47
2023-01-25T04:44:58.632Z,31.02
2023-01-25T04:47:25.190Z,28.20
2023-01-25T04:49:51.783Z,21.45
2023-01-25T04:52:18.443Z,29.10
2023-01-25T04:54:45.004Z,27.45
2023-01-25T04:57:11.466Z,32.83
2023-01-25T04:59:38.083Z,32.03
2023-01-25T05:02:04.704Z,32.53
2023-01-25T05:04:31.294Z,34.30
2023-01-25T05:06:57.886Z,28.80
2023-01-25T05:09:24.343Z,37.85
2023-01-25T05:11:50.863Z,28.33
2023-01-25T05:14:17.371Z,37.40
2023-01-25T05:16:44.291Z,35.58
2023-01-25T05:19:11.100Z,39.75
2023-01-25T05:21:37.763Z,30.92
2023-01-25T05:24:04.615Z,35.10
2023-01-25T05:26:31.163Z,29.10
2023-01-25T05:28:57.769Z,34.55
2023-01-25T05:31:24.447Z,35.80
2023-01-25T05:33:51.065Z,30.77
2023-01-25T05:36:17.649Z,36.23
2023-01-25T05:38:44.115Z,29.80
2023-01-25T05:41:10.619Z,29.95
2023-01-25T05:43:37.300Z,28.02
2023-01-25T05:46:03.896Z,23.73
2023-01-25T05:48:30.489Z,28.73
2023-01-25T05:50:59.990Z,31.30
2023-01-25T05:53:27.492Z,35.80
2023-01-25T05:55:54.376Z,33.35
2023-01-25T05:58:21.067Z,30.85
2023-01-25T06:00:47.618Z,33.50
2023-01-25T06:03:14.161Z,33.80
2023-01-25T06:05:40.885Z,33.45
2023-01-25T06:08:07.411Z,35.83
2023-01-25T06:10:33.895Z,29.40
2023-01-25T06:13:00.437Z,28.27
2023-01-25T06:15:27.998Z,30.40
2023-01-25T06:17:55.756Z,28.25
2023-01-25T06:20:22.457Z,33.03
2023-01-25T06:22:50.538Z,27.75
2023-01-25T06:25:17.336Z,29.93
2023-01-25T06:27:44.356Z,29.42
2023-01-25T06:30:11.323Z,31.55
2023-01-25T06:32:37.854Z,31.15
2023-01-25T06:35:05.122Z,28.33
2023-01-25T06:37:31.894Z,29.53
2023-01-25T06:39:58.386Z,30.55
2023-01-25T06:42:25.302Z,24.52
2023-01-25T06:44:51.851Z,26.15
2023-01-25T06:47:18.352Z,27.58
2023-01-25T06:49:44.947Z,28.00
2023-01-25T06:52:11.523Z,27.70
2023-01-25T06:54:38.052Z,29.58
2023-01-25T06:57:04.942Z,25.58
2023-01-25T06:59:31.456Z,31.73
2023-01-25T07:01:58.059Z,27.77
2023-01-25T07:04:24.859Z,26.80
2023-01-25T07:06:51.356Z,28.33
2023-01-25T07:09:17.933Z,25.10
2023-01-25T07:11:44.488Z,31.58
2023-01-25T07:14:10.963Z,25.30
2023-01-25T07:16:37.605Z,30.30
2023-01-25T07:19:05.921Z,29.38
2023-01-25T07:21:33.448Z,30.50
2023-01-25T07:24:01.871Z,32.15
2023-01-25T07:26:28.579Z,26.57
2023-01-25T07:28:56.705Z,22.90
2023-01-25T07:31:23.868Z,32.05
2023-01-25T07:33:55.663Z,28.17
2023-01-25T07:36:22.283Z,28.48
2023-01-25T07:38:52.446Z,27.23
2023-01-25T07:41:19.024Z,33.67
2023-01-25T07:43:45.630Z,29.48
2023-01-25T07:46:13.427Z,30.02
2023-01-25T07:48:45.435Z,33.38
2023-01-25T07:51:12.096Z,26.73
2023-01-25T07:53:43.115Z,31.30
2023-01-25T07:56:11.553Z,29.63
2023-01-25T07:58:38.926Z,36.03
2023-01-25T08:01:10.684Z,23.20
2023-01-25T08:05:07.484Z,33.10
2023-01-25T08:07:34.701Z,44.65
2023-01-25T08:10:01.202Z,40.08
2023-01-25T08:12:27.734Z,25.85
2023-01-25T08:14:54.202Z,32.75
2023-01-25T08:17:20.726Z,19.83
2023-01-25T08:19:47.343Z,25.15
2023-01-25T08:22:13.933Z,28.25
2023-01-25T08:24:40.516Z,33.38
2023-01-25T08:27:07.296Z,35.63
2023-01-25T08:29:33.785Z,41.07
2023-01-25T08:32:00.348Z,34.38
2023-01-25T08:34:27.001Z,37.38
2023-01-25T08:36:53.533Z,34.65
2023-01-25T08:39:20.008Z,28.27
2023-01-25T08:41:46.623Z,35.70
2023-01-25T08:44:13.192Z,27.88
2023-01-25T08:46:39.756Z,33.10
2023-01-25T08:49:06.526Z,31.42
2023-01-25T08:51:33.762Z,38.22
2023-01-25T08:54:06.084Z,30.53
2023-01-25T08:56:33.529Z,32.28
2023-01-25T08:59:00.101Z,30.70
2023-01-25T09:01:26.607Z,31.48
2023-01-25T09:03:54.172Z,31.42
2023-01-25T09:06:21.237Z,26.77
2023-01-25T09:08:48.227Z,28.95
2023-01-25T09:11:18.051Z,28.65
2023-01-25T09:13:45.099Z,24.92
2023-01-25T09:16:15.323Z,30.38
2023-01-25T09:18:44.334Z,31.73
2023-01-25T09:21:13.909Z,31.23
2023-01-25T09:23:50.662Z,33.67
2023-01-25T09:26:25.046Z,28.92
2023-01-25T09:28:53.608Z,32.13
2023-01-25T09:31:23.647Z,32.07
2023-01-25T09:33:51.895Z,29.98
2023-01-25T09:36:19.036Z,31.90
2023-01-25T09:38:45.517Z,32.90
2023-01-25T09:41:36.803Z,26.20
2023-01-25T09:44:21.114Z,35.50
2023-01-25T09:46:58.660Z,31.80
2023-01-25T09:50:02.348Z,35.38
2023-01-25T09:52:50.172Z,26.85
2023-01-25T09:55:20.502Z,29.55
2023-01-25T09:57:47.678Z,27.50
2023-01-25T10:00:31.529Z,28.95
2023-01-25T10:03:21.024Z,26.15
2023-01-25T10:05:51.593Z,31.10
2023-01-25T10:08:36.512Z,28.23
2023-01-25T10:11:05.833Z,28.70
2023-01-25T10:13:32.359Z,33.45
2023-01-25T10:16:06.472Z,34.35
2023-01-25T10:18:40.366Z,29.95
2023-01-25T10:21:09.751Z,28.95
2023-01-25T10:24:06.683Z,26.70
2023-01-25T10:26:35.821Z,28.15
2023-01-25T10:29:18.658Z,23.92
2023-01-25T10:31:50.796Z,31.58
2023-01-25T10:34:21.689Z,21.38
2023-01-25T10:37:02.688Z,28.20
2023-01-25T10:39:31.491Z,28.83
2023-01-25T10:42:06.719Z,24.42
2023-01-25T10:44:34.945Z,28.38
2023-01-25T10:47:07.299Z,28.52
2023-01-25T10:49:50.807Z,28.17
2023-01-25T10:52:26.028Z,28.92
2023-01-25T10:55:29.105Z,26.63
2023-01-25T10:57:57.667Z,27.85
2023-01-25T11:00:40.385Z,28.25
2023-01-25T11:03:19.705Z,32.53
2023-01-25T11:05:55.449Z,30.60
2023-01-25T11:08:30.912Z,30.15
2023-01-25T11:10:59.447Z,26.73
2023-01-25T11:13:33.292Z,25.48
2023-01-25T11:16:17.010Z,29.10
2023-01-25T11:18:55.015Z,26.27
2023-01-25T11:21:24.640Z,25.73
2023-01-25T11:24:17.758Z,31.27
2023-01-25T11:26:46.402Z,26.00
2023-01-25T11:29:16.323Z,28.23
2023-01-25T11:31:46.172Z,29.92
2023-01-25T11:34:16.136Z,26.08
2023-01-25T11:36:57.768Z,24.73
2023-01-25T11:39:38.391Z,26.13
2023-01-25T11:42:32.540Z,27.10
2023-01-25T11:44:59.613Z,28.20
2023-01-25T11:47:41.013Z,22.60
2023-01-25T11:50:24.492Z,30.48
2023-01-25T11:53:12.793Z,29.50
2023-01-25T11:55:48.685Z,25.00
2023-01-25T11:58:37.092Z,32.55
2023-01-25T12:01:14.591Z,22.75
2023-01-25T12:04:20.810Z,30.08
2023-01-25T12:07:07.138Z,29.67
2023-01-25T12:09:57.723Z,21.57
2023-01-25T12:12:56.769Z,22.65
2023-01-25T12:15:52.548Z,23.25
2023-01-25T12:18:31.883Z,27.23
2023-01-25T12:21:30.850Z,22.35
2023-01-25T12:24:08.329Z,26.67
2023-01-25T12:27:19.451Z,28.58
2023-01-25T12:29:58.827Z,25.20
2023-01-25T12:32:35.873Z,28.27
2023-01-25T12:35:22.747Z,22.25
2023-01-25T12:37:53.670Z,27.37
2023-01-25T12:40:30.714Z,25.45
2023-01-25T12:42:59.666Z,23.80
2023-01-25T12:45:34.835Z,27.52
2023-01-25T12:48:22.818Z,28.33
2023-01-25T12:50:57.307Z,30.40
2023-01-25T12:53:33.541Z,26.73
2023-01-25T12:56:00.851Z,24.77
2023-01-25T12:58:52.594Z,28.77
2023-01-25T13:01:54.424Z,29.33
2023-01-25T13:04:45.179Z,25.40
2023-01-25T13:07:27.821Z,35.78
2023-01-25T13:10:02.012Z,33.20
2023-01-25T13:12:28.613Z,35.70
2023-01-25T13:14:55.150Z,27.63
2023-01-25T13:17:34.837Z,34.23
2023-01-25T13:20:22.852Z,25.05
2023-01-25T13:22:49.814Z,23.23
2023-01-25T13:25:20.851Z,27.90
2023-01-25T13:27:47.490Z,26.83
2023-01-25T13:30:30.777Z,22.37
2023-01-25T13:33:03.294Z,19.48
2023-01-25T13:35:35.649Z,23.95
2023-01-25T13:38:29.729Z,21.75
2023-01-25T13:41:04.960Z,20.88
2023-01-25T13:43:31.577Z,28.70
2023-01-25T13:45:58.202Z,25.83
2023-01-25T13:48:28.730Z,20.13
2023-01-25T13:51:00.251Z,26.67
2023-01-25T13:53:27.331Z,23.58
2023-01-25T13:55:56.596Z,21.10
2023-01-25T13:58:32.642Z,19.48
2023-01-25T14:01:14.900Z,26.90
2023-01-25T14:04:02.425Z,20.63
2023-01-25T14:06:37.840Z,25.55
2023-01-25T14:09:12.424Z,21.40
2023-01-25T14:11:57.618Z,21.55
2023-01-25T14:14:32.644Z,25.70
2023-01-25T14:17:15.952Z,22.10
2023-01-25T14:19:48.935Z,17.83
2023-01-25T14:22:21.844Z,24.40
2023-01-25T14:25:03.646Z,20.55
2023-01-25T14:27:30.969Z,16.73
2023-01-25T14:29:57.587Z,20.98
2023-01-25T14:32:27.426Z,24.77
2023-01-25T14:34:54.842Z,26.40
2023-01-25T14:37:22.006Z,17.92
2023-01-25T14:39:50.987Z,17.60
2023-01-25T14:42:18.677Z,21.08
2023-01-25T14:44:45.728Z,18.27
2023-01-25T14:47:32.386Z,13.60
2023-01-25T14:50:30.139Z,18.48
2023-01-25T14:52:58.912Z,19.48
2023-01-25T14:55:26.623Z,18.17
2023-01-25T14:57:58.712Z,20.23
2023-01-25T15:00:26.941Z,19.23
2023-01-25T15:02:56.162Z,17.45
2023-01-25T15:05:26.071Z,20.65
2023-01-25T15:07:58.666Z,15.63
2023-01-25T15:10:30.326Z,19.45
2023-01-25T15:13:14.547Z,19.67
2023-01-25T15:15:56.343Z,16.20
2023-01-25T15:18:44.703Z,13.75
2023-01-25T15:21:14.063Z,12.48
2023-01-25T15:23:43.163Z,15.05
2023-01-25T15:26:17.244Z,16.30
2023-01-25T15:28:43.845Z,14.93
2023-01-25T15:31:24.150Z,12.93
2023-01-25T15:33:50.900Z,22.30
2023-01-25T15:36:17.688Z,17.92
2023-01-25T15:38:46.030Z,42.73
2023-01-25T15:41:13.307Z,14.95
2023-01-25T15:43:40.399Z,16.45
2023-01-25T15:46:16.685Z,12.77
2023-01-25T15:48:45.173Z,12.10
2023-01-25T15:51:14.458Z,14.97
2023-01-25T15:53:41.594Z,13.70
2023-01-25T15:56:13.603Z,11.68
2023-01-25T15:58:42.365Z,11.10
2023-01-25T16:01:10.278Z,12.63
2023-01-25T16:03:36.826Z,12.77
2023-01-25T16:06:20.492Z,8.57
2023-01-25T16:08:47.349Z,10.20
2023-01-25T16:11:13.789Z,9.32
2023-01-25T16:13:41.006Z,20.52
2023-01-25T16:16:19.737Z,10.67
2023-01-25T16:18:46.618Z,7.97
2023-01-25T16:21:13.654Z,9.05
2023-01-25T16:23:40.347Z,9.40
2023-01-25T16:26:27.797Z,8.20
2023-01-25T16:28:54.498Z,7.83
2023-01-25T16:31:32.031Z,6.97
2023-01-25T16:33:59.549Z,8.75
2023-01-25T16:36:26.196Z,8.80
2023-01-25T16:38:52.873Z,8.65
2023-01-25T16:41:19.639Z,9.03
2023-01-25T16:43:48.503Z,9.23
2023-01-25T16:46:23.518Z,8.88
2023-01-25T16:48:51.749Z,9.10
2023-01-25T16:51:28.714Z,9.80
2023-01-25T16:53:57.388Z,8.73
2023-01-25T16:56:33.442Z,3.88
2023-01-25T16:59:05.632Z,7.43
2023-01-25T17:01:32.620Z,8.05
2023-01-25T17:03:59.403Z,8.82
2023-01-25T17:06:32.033Z,9.77
2023-01-25T17:09:04.050Z,10.10
2023-01-25T17:11:36.086Z,9.23
2023-01-25T17:14:02.783Z,9.32
2023-01-25T17:16:30.423Z,5.80
2023-01-25T17:18:59.576Z,11.93
2023-01-25T17:21:27.191Z,7.05
2023-01-25T17:23:55.690Z,8.15
2023-01-25T17:26:23.919Z,12.73
2023-01-25T17:28:51.508Z,9.10
2023-01-25T17:31:20.983Z,12.40
2023-01-25T17:33:47.951Z,6.10
2023-01-25T17:36:15.341Z,11.30
2023-01-25T17:38:42.679Z,8.55
2023-01-25T17:41:11.815Z,10.32
2023-01-25T17:43:38.627Z,10.00
2023-01-25T17:46:19.961Z,9.43
2023-01-25T17:48:46.553Z,10.57
2023-01-25T17:51:13.030Z,10.73
2023-01-25T17:53:39.586Z,7.60
2023-01-25T17:56:08.355Z,10.13
2023-01-25T17:58:36.316Z,9.88
2023-01-25T18:01:14.505Z,10.75
2023-01-25T18:03:42.637Z,5.93
2023-01-25T18:06:11.219Z,11.05
2023-01-25T18:08:43.009Z,9.17
2023-01-25T18:11:11.084Z,12.75
2023-01-25T18:13:41.991Z,10.07
2023-01-25T18:16:09.720Z,11.85
2023-01-25T18:18:37.663Z,8.90
2023-01-25T18:21:16.177Z,10.47
2023-01-25T18:23:47.675Z,9.40
2023-01-25T18:26:20.374Z,8.75
2023-01-25T18:28:47.058Z,12.48
2023-01-25T18:31:14.256Z,9.20
2023-01-25T18:33:41.004Z,9.60
2023-01-25T18:36:07.869Z,7.72
2023-01-25T18:38:34.412Z,8.32
2023-01-25T18:41:01.007Z,8.18
2023-01-25T18:43:27.565Z,9.05
2023-01-25T18:45:55.888Z,12.17
2023-01-25T18:48:23.353Z,12.10
2023-01-25T18:50:49.911Z,11.82
2023-01-25T18:53:16.482Z,12.43
2023-01-25T18:55:43.064Z,12.45
2023-01-25T18:58:09.621Z,9.30
2023-01-25T19:00:36.158Z,11.52
2023-01-25T19:03:02.769Z,15.02
2023-01-25T19:05:29.709Z,12.88
2023-01-25T19:07:56.269Z,10.80
2023-01-25T19:10:22.907Z,13.80
2023-01-25T19:12:50.329Z,13.27
2023-01-25T19:15:16.877Z,13.45
2023-01-25T19:17:43.484Z,13.70
2023-01-25T19:20:10.637Z,13.30
2023-01-25T19:22:37.208Z,10.77
2023-01-25T19:25:03.899Z,12.80
2023-01-25T19:27:30.419Z,16.60
2023-01-25T19:29:56.885Z,11.85
2023-01-25T19:32:23.450Z,14.10
2023-01-25T19:34:50.927Z,18.13
2023-01-25T19:37:17.470Z,15.30
2023-01-25T19:39:44.432Z,14.68
2023-01-25T19:42:10.938Z,18.15
2023-01-25T19:44:37.500Z,16.20
2023-01-25T19:47:04.118Z,16.53
2023-01-25T19:49:30.571Z,9.98
2023-01-25T19:51:57.072Z,13.30
2023-01-25T19:54:23.739Z,14.07
2023-01-25T19:56:50.993Z,14.00
2023-01-25T19:59:20.141Z,14.33
2023-01-25T20:01:47.682Z,15.40
2023-01-25T20:04:18.141Z,13.02
2023-01-25T20:06:45.563Z,14.70
2023-01-25T20:09:14.514Z,10.73
2023-01-25T20:11:41.659Z,11.10
2023-01-25T20:14:08.497Z,14.68
2023-01-25T20:16:35.677Z,17.80
2023-01-25T20:19:03.101Z,15.73
2023-01-25T20:21:30.955Z,15.98
2023-01-25T20:23:59.174Z,10.83
2023-01-25T20:26:31.747Z,14.18
2023-01-25T20:28:59.236Z,14.45
2023-01-25T20:31:28.649Z,15.38
2023-01-25T20:33:58.347Z,12.93
2023-01-25T20:36:25.636Z,13.73
2023-01-25T20:38:52.151Z,15.25
2023-01-25T20:41:18.959Z,10.77
2023-01-25T20:43:50.319Z,14.85
2023-01-25T20:46:18.457Z,11.02
2023-01-25T20:48:45.065Z,7.83
2023-01-25T20:51:13.739Z,15.30
2023-01-25T20:53:41.867Z,16.58
2023-01-25T20:56:09.727Z,14.82
2023-01-25T20:58:36.552Z,16.65
2023-01-25T21:01:03.991Z,22.33
2023-01-25T21:03:30.607Z,16.52
2023-01-25T21:05:59.243Z,17.63
2023-01-25T21:08:28.876Z,15.80
2023-01-25T21:10:57.930Z,11.20
2023-01-25T21:13:25.349Z,15.30
2023-01-25T21:16:01.958Z,16.40
2023-01-25T21:18:31.646Z,16.95
2023-01-25T21:21:10.550Z,10.55
2023-01-25T21:23:39.375Z,13.10
2023-01-25T21:26:07.562Z,16.60
2023-01-25T21:28:34.905Z,21.08
2023-01-25T21:31:22.620Z,16.38
2023-01-25T21:33:49.159Z,13.70
2023-01-25T21:36:17.376Z,10.00
2023-01-25T21:38:46.399Z,19.37
2023-01-25T21:41:18.192Z,10.35
2023-01-25T21:43:45.980Z,15.38
2023-01-25T21:46:12.596Z,17.25
2023-01-25T21:48:39.089Z,17.50
2023-01-25T21:51:05.762Z,15.07
2023-01-25T21:53:32.443Z,12.90
2023-01-25T21:55:58.931Z,13.20
2023-01-25T21:58:25.428Z,18.80
2023-01-25T22:00:52.123Z,18.17
2023-01-25T22:03:18.713Z,13.97
2023-01-25T22:05:54.262Z,15.13
2023-01-25T22:08:20.900Z,20.60
2023-01-25T22:10:47.372Z,18.17
2023-01-25T22:13:14.728Z,20.35
2023-01-25T22:15:41.266Z,16.87
2023-01-25T22:18:07.783Z,15.00
2023-01-25T22:20:34.786Z,18.90
2023-01-25T22:23:01.964Z,20.52
2023-01-25T22:25:28.607Z,18.98
2023-01-25T22:27:59.941Z,16.53
2023-01-25T22:30:26.504Z,22.42
2023-01-25T22:32:53.079Z,19.23
2023-01-25T22:35:19.668Z,14.18
2023-01-25T22:37:46.191Z,15.93
2023-01-25T22:40:13.228Z,19.83
2023-01-25T22:42:40.125Z,22.10
2023-01-25T22:45:07.295Z,15.73
2023-01-25T22:47:33.846Z,18.13
2023-01-25T22:50:00.718Z,18.15
2023-01-25T22:52:27.248Z,18.77
2023-01-25T22:54:53.874Z,20.10
2023-01-25T22:57:20.467Z,14.52
2023-01-25T22:59:46.952Z,18.02
2023-01-25T23:02:13.425Z,20.50
2023-01-25T23:04:40.057Z,19.20
2023-01-25T23:07:06.736Z,20.00
2023-01-25T23:09:34.145Z,18.98
2023-01-25T23:12:00.808Z,15.35
2023-01-25T23:14:27.460Z,14.23
2023-01-25T23:16:54.207Z,21.03
2023-01-25T23:19:20.844Z,14.68
2023-01-25T23:21:47.420Z,15.73
2023-01-25T23:24:14.116Z,18.30
2023-01-25T23:26:40.692Z,19.25
2023-01-25T23:29:10.757Z,14.37
2023-01-25T23:31:37.561Z,18.60
2023-01-25T23:34:06.640Z,15.63
2023-01-25T23:36:37.347Z,13.88
2023-01-25T23:39:04.376Z,16.05
2023-01-25T23:41:31.526Z,16.73
2023-01-25T23:43:58.606Z,18.00
2023-01-25T23:46:26.086Z,11.20
2023-01-25T23:48:52.857Z,15.73
2023-01-25T23:51:20.325Z,12.18
2023-01-25T23:53:47.247Z,16.30
2023-01-25T23:56:19.842Z,22.00
2023-01-25T23:58:47.907Z,18.73
